Flight Track Log - Related Links

Times and Time Zones

All times are in EDT time to prevent confusion due to time zone crossing. See the TYR850 flight status page for this flight to view local times or setup timezone preferences in your user account.

Time Position Orientation Groundspeed Altitude Reporting Facility
EDT Latitude Longitude Course Direction KTS MPH feet Rate Location/Type
Tue 10:35:00 PM 41.8518 19.5368 343° North  Level Estimated
Tue 10:36:00 PM 41.9392 19.4998 342° North  Level Estimated
Tue 10:37:00 PM 42.0266 19.4627 342° North  Level Estimated
Tue 10:38:00 PM 42.1139 19.4254 342° North  Level Estimated
Tue 10:39:00 PM 42.2013 19.3881 342° North  Level Estimated
Tue 10:40:00 PM 42.2886 19.3506 342° North  Level Estimated
Tue 10:41:00 PM 42.3759 19.3131 342° North  Level Estimated
Tue 10:42:00 PM 42.4632 19.2754 342° North  Level Estimated
Tue 10:43:00 PM 42.5505 19.2376 342° North  Level Estimated
Tue 10:44:00 PM 42.6378 19.1998 342° North  Level Estimated
Tue 10:45:00 PM 42.7251 19.1618 342° North  Level Estimated
Tue 10:46:00 PM 42.8123 19.1237 342° North  Level Estimated
Tue 10:47:00 PM 42.8996 19.0855 342° North  Level Estimated
Tue 10:48:00 PM 42.9868 19.0472 342° North  Level Estimated
Tue 10:49:00 PM 43.0740 19.0088 342° North  Level Estimated
Tue 10:50:00 PM 43.1613 18.9703 342° North  Level Estimated
Tue 10:51:00 PM 43.2484 18.9316 342° North  Level Estimated
Tue 10:52:00 PM 43.3356 18.8929 342° North  Level Estimated
Tue 10:53:00 PM 43.4228 18.8540 342° North  Level Estimated
Tue 10:54:00 PM 43.5099 18.8151 342° North  Level Estimated
Tue 10:55:00 PM 43.5971 18.7760 342° North  Level Estimated
Tue 10:56:00 PM 43.6842 18.7368 342° North  Level Estimated
Tue 10:57:00 PM 43.7713 18.6975 342° North  Level Estimated
Tue 10:58:00 PM 43.8584 18.6581 342° North  Level Estimated
Tue 10:59:00 PM 43.9455 18.6186 342° North  Level Estimated
Tue 11:00:00 PM 44.0326 18.5789 342° North  Level Estimated
Tue 11:01:00 PM 44.1196 18.5392 342° North  Level Estimated
Tue 11:02:00 PM 44.2067 18.4993 342° North  Level Estimated
Tue 11:03:00 PM 44.2937 18.4593 342° North  Level Estimated
Tue 11:04:00 PM 44.3807 18.4191 342° North  Level Estimated
Tue 11:05:00 PM 44.4677 18.3789 342° North  Level Estimated
Tue 11:06:00 PM 44.5547 18.3386 342° North  Level Estimated
Tue 11:07:00 PM 44.6417 18.2981 342° North  Level Estimated
Tue 11:08:00 PM 44.7287 18.2575 342° North  Level Estimated
Tue 11:09:00 PM 44.8156 18.2167 342° North  Level Estimated
Tue 11:10:00 PM 44.9025 18.1759 342° North  Level Estimated
Tue 11:11:00 PM 44.9895 18.1349 342° North  Level Estimated
Tue 11:12:00 PM 45.0764 18.0938 342° North  Level Estimated
Tue 11:13:00 PM 45.1633 18.0526 342° North  Level Estimated
Tue 11:14:00 PM 45.2501 18.0112 341° North  Level Estimated
Tue 11:15:00 PM 45.3370 17.9698 341° North  Level Estimated
Tue 11:16:00 PM 45.4238 17.9282 341° North  Level Estimated
Tue 11:17:00 PM 45.5107 17.8864 341° North  Level Estimated
Tue 11:18:00 PM 45.5975 17.8446 341° North  Level Estimated
Tue 11:19:00 PM 45.6843 17.8026 341° North  Level Estimated
Tue 11:20:00 PM 45.7710 17.7605 341° North  Level Estimated
Tue 11:21:00 PM 45.8578 17.7182 341° North  Level Estimated
Tue 11:22:00 PM 45.9446 17.6758 341° North  Level Estimated
Tue 11:23:00 PM 46.0313 17.6333 341° North  Level Estimated
Tue 11:24:00 PM 46.1180 17.5907 341° North  Level Estimated
Tue 11:25:00 PM 46.2047 17.5479 341° North  Level Estimated
Tue 11:26:00 PM 46.2914 17.5050 341° North  Level Estimated
Tue 11:27:00 PM 46.3781 17.4619 341° North  Level Estimated
Tue 11:28:00 PM 46.4647 17.4187 341° North  Level Estimated
Tue 11:29:00 PM 46.5514 17.3754 341° North  Level Estimated
Tue 11:30:00 PM 46.6380 17.3319 341° North  Level Estimated
Tue 11:31:00 PM 46.7246 17.2883 341° North  Level Estimated
Tue 11:32:00 PM 46.8112 17.2446 341° North  Level Estimated
Tue 11:33:00 PM 46.8978 17.2007 341° North  Level Estimated
Tue 11:34:00 PM 46.9843 17.1567 341° North  Level Estimated
Tue 11:35:00 PM 47.0709 17.1125 341° North  Level Estimated
Tue 11:36:00 PM 47.1574 17.0682 341° North  Level Estimated
Tue 11:37:00 PM 47.2439 17.0237 341° North  Level Estimated
Tue 11:38:00 PM 47.3304 16.9791 341° North  Level Estimated
Tue 11:39:00 PM 47.4169 16.9343 341° North  Level Estimated
Tue 11:40:00 PM 47.5033 16.8895 341° North  Level Estimated
Tue 11:41:00 PM 47.5897 16.8444 341° North  Level Estimated
Tue 11:42:00 PM 47.6762 16.7992 341° North  Level Estimated
Tue 11:43:00 PM 47.7626 16.7539 341° North  Level Estimated
Tue 11:44:00 PM 47.8489 16.7083 341° North  Level Estimated
Tue 11:45:00 PM 47.9353 16.6627 341° North  Level Estimated
Tue 11:46:00 PM 48.0217 16.6169 340° North  Level Estimated
Tue 11:47:00 PM 48.1080 16.5709 340° North  Level Estimated
Tue 11:48:00 PM 48.1103 16.5697 340° North  Level Estimated
Tue 11:49:00 PM 48.1103 16.5697 146° Southeast  Level Estimated

Login

Don't have an account? Register now (free) for customized features, flight alerts, and more!